sensor_id;sensor_type;location;lat;lon;timestamp;P1;durP1;ratioP1;P2;durP2;ratioP2
79241;SDS011;68670;48.720;9.118;2024-01-15T00:02:15;14.23;;;4.37;;
79241;SDS011;68670;48.720;9.118;2024-01-15T00:04:41;15.27;;;4.63;;
79241;SDS011;68670;48.720;9.118;2024-01-15T00:07:06;9.95;;;3.33;;
79241;SDS011;68670;48.720;9.118;2024-01-15T00:09:35;16.15;;;5.00;;
79241;SDS011;68670;48.720;9.118;2024-01-15T00:12:03;11.02;;;4.03;;
79241;SDS011;68670;48.720;9.118;2024-01-15T00:14:29;12.43;;;3.55;;
79241;SDS011;68670;48.720;9.118;2024-01-15T00:16:54;11.43;;;4.57;;
79241;SDS011;68670;48.720;9.118;2024-01-15T00:19:23;10.43;;;3.77;;
79241;SDS011;68670;48.720;9.118;2024-01-15T00:21:49;11.25;;;3.90;;
79241;SDS011;68670;48.720;9.118;2024-01-15T00:24:17;9.35;;;3.78;;
79241;SDS011;68670;48.720;9.118;2024-01-15T00:26:42;9.07;;;3.67;;
79241;SDS011;68670;48.720;9.118;2024-01-15T00:29:11;13.73;;;4.72;;
79241;SDS011;68670;48.720;9.118;2024-01-15T00:31:38;15.65;;;3.85;;
79241;SDS011;68670;48.720;9.118;2024-01-15T00:34:03;14.73;;;4.30;;
79241;SDS011;68670;48.720;9.118;2024-01-15T00:36:33;10.52;;;3.85;;
79241;SDS011;68670;48.720;9.118;2024-01-15T00:38:59;13.37;;;3.57;;
79241;SDS011;68670;48.720;9.118;2024-01-15T00:41:26;14.95;;;3.42;;
79241;SDS011;68670;48.720;9.118;2024-01-15T00:43:52;8.30;;;3.08;;
79241;SDS011;68670;48.720;9.118;2024-01-15T00:46:21;7.25;;;2.30;;
79241;SDS011;68670;48.720;9.118;2024-01-15T00:48:48;11.02;;;3.67;;
79241;SDS011;68670;48.720;9.118;2024-01-15T00:51:18;12.45;;;3.72;;
79241;SDS011;68670;48.720;9.118;2024-01-15T00:53:46;16.30;;;4.73;;
79241;SDS011;68670;48.720;9.118;2024-01-15T00:56:11;10.13;;;3.95;;
79241;SDS011;68670;48.720;9.118;2024-01-15T00:58:37;10.27;;;3.57;;
79241;SDS011;68670;48.720;9.118;2024-01-15T01:01:04;14.52;;;3.55;;
79241;SDS011;68670;48.720;9.118;2024-01-15T01:03:34;10.85;;;4.45;;
79241;SDS011;68670;48.720;9.118;2024-01-15T01:06:01;13.50;;;3.75;;
79241;SDS011;68670;48.720;9.118;2024-01-15T01:08:27;9.77;;;2.65;;
79241;SDS011;68670;48.720;9.118;2024-01-15T01:10:55;11.00;;;3.53;;
79241;SDS011;68670;48.720;9.118;2024-01-15T01:13:23;9.80;;;3.42;;
79241;SDS011;68670;48.720;9.118;2024-01-15T01:15:50;12.30;;;4.00;;
79241;SDS011;68670;48.720;9.118;2024-01-15T01:18:16;13.50;;;3.92;;
79241;SDS011;68670;48.720;9.118;2024-01-15T01:20:41;10.53;;;3.77;;
79241;SDS011;68670;48.720;9.118;2024-01-15T01:23:09;11.05;;;3.35;;
79241;SDS011;68670;48.720;9.118;2024-01-15T01:25:36;9.30;;;3.75;;
79241;SDS011;68670;48.720;9.118;2024-01-15T01:28:03;8.48;;;3.80;;
79241;SDS011;68670;48.720;9.118;2024-01-15T01:30:31;7.75;;;3.08;;
79241;SDS011;68670;48.720;9.118;2024-01-15T01:32:59;17.95;;;4.78;;
79241;SDS011;68670;48.720;9.118;2024-01-15T01:35:24;12.33;;;4.03;;
79241;SDS011;68670;48.720;9.118;2024-01-15T01:37:51;9.48;;;3.42;;
79241;SDS011;68670;48.720;9.118;2024-01-15T01:40:17;10.50;;;3.83;;
79241;SDS011;68670;48.720;9.118;2024-01-15T01:42:42;11.65;;;3.58;;
79241;SDS011;68670;48.720;9.118;2024-01-15T01:45:10;9.75;;;3.03;;
79241;SDS011;68670;48.720;9.118;2024-01-15T01:47:36;15.30;;;3.35;;
79241;SDS011;68670;48.720;9.118;2024-01-15T01:50:05;10.00;;;3.42;;
79241;SDS011;68670;48.720;9.118;2024-01-15T01:52:31;10.10;;;3.17;;
79241;SDS011;68670;48.720;9.118;2024-01-15T01:54:59;11.90;;;3.28;;
79241;SDS011;68670;48.720;9.118;2024-01-15T01:57:29;10.57;;;3.78;;
79241;SDS011;68670;48.720;9.118;2024-01-15T01:59:58;17.27;;;4.95;;
79241;SDS011;68670;48.720;9.118;2024-01-15T02:02:24;10.18;;;2.97;;
79241;SDS011;68670;48.720;9.118;2024-01-15T02:04:52;8.95;;;4.00;;
79241;SDS011;68670;48.720;9.118;2024-01-15T02:07:17;10.93;;;4.07;;
79241;SDS011;68670;48.720;9.118;2024-01-15T02:09:44;10.97;;;3.57;;
79241;SDS011;68670;48.720;9.118;2024-01-15T02:12:11;11.25;;;3.33;;
79241;SDS011;68670;48.720;9.118;2024-01-15T02:14:37;12.68;;;3.63;;
79241;SDS011;68670;48.720;9.118;2024-01-15T02:17:07;12.88;;;3.78;;
79241;SDS011;68670;48.720;9.118;2024-01-15T02:19:37;15.73;;;4.68;;
79241;SDS011;68670;48.720;9.118;2024-01-15T02:22:04;16.83;;;4.65;;
79241;SDS011;68670;48.720;9.118;2024-01-15T02:24:30;6.00;;;2.55;;
79241;SDS011;68670;48.720;9.118;2024-01-15T02:26:58;9.00;;;3.13;;
79241;SDS011;68670;48.720;9.118;2024-01-15T02:29:28;10.93;;;3.45;;
79241;SDS011;68670;48.720;9.118;2024-01-15T02:31:56;9.35;;;3.35;;
79241;SDS011;68670;48.720;9.118;2024-01-15T02:34:21;8.60;;;3.30;;
79241;SDS011;68670;48.720;9.118;2024-01-15T02:36:47;9.73;;;3.30;;
79241;SDS011;68670;48.720;9.118;2024-01-15T02:39:14;12.65;;;3.72;;
79241;SDS011;68670;48.720;9.118;2024-01-15T02:41:42;13.52;;;4.50;;
79241;SDS011;68670;48.720;9.118;2024-01-15T02:44:07;12.17;;;3.37;;
79241;SDS011;68670;48.720;9.118;2024-01-15T02:46:32;10.03;;;2.93;;
79241;SDS011;68670;48.720;9.118;2024-01-15T02:49:00;7.18;;;3.08;;
79241;SDS011;68670;48.720;9.118;2024-01-15T02:51:25;11.77;;;3.30;;
79241;SDS011;68670;48.720;9.118;2024-01-15T02:53:52;10.07;;;3.75;;
79241;SDS011;68670;48.720;9.118;2024-01-15T02:56:17;12.10;;;3.40;;
79241;SDS011;68670;48.720;9.118;2024-01-15T02:58:45;14.30;;;4.23;;
79241;SDS011;68670;48.720;9.118;2024-01-15T03:01:13;10.00;;;3.28;;
79241;SDS011;68670;48.720;9.118;2024-01-15T03:03:45;8.18;;;2.85;;
79241;SDS011;68670;48.720;9.118;2024-01-15T03:06:10;12.70;;;3.85;;
79241;SDS011;68670;48.720;9.118;2024-01-15T03:08:36;12.90;;;3.93;;
79241;SDS011;68670;48.720;9.118;2024-01-15T03:11:01;12.57;;;3.95;;
79241;SDS011;68670;48.720;9.118;2024-01-15T03:13:29;11.35;;;3.40;;
79241;SDS011;68670;48.720;9.118;2024-01-15T03:15:56;11.38;;;3.60;;
79241;SDS011;68670;48.720;9.118;2024-01-15T03:18:23;9.95;;;4.07;;
79241;SDS011;68670;48.720;9.118;2024-01-15T03:20:49;12.10;;;4.40;;
79241;SDS011;68670;48.720;9.118;2024-01-15T03:23:16;11.93;;;3.30;;
79241;SDS011;68670;48.720;9.118;2024-01-15T03:25:44;12.60;;;3.50;;
79241;SDS011;68670;48.720;9.118;2024-01-15T03:28:11;11.77;;;3.65;;
79241;SDS011;68670;48.720;9.118;2024-01-15T03:30:39;11.15;;;3.40;;
79241;SDS011;68670;48.720;9.118;2024-01-15T03:33:04;11.37;;;3.47;;
79241;SDS011;68670;48.720;9.118;2024-01-15T03:35:31;10.48;;;3.20;;
79241;SDS011;68670;48.720;9.118;2024-01-15T03:37:59;11.13;;;3.47;;
79241;SDS011;68670;48.720;9.118;2024-01-15T03:40:24;9.17;;;2.57;;
79241;SDS011;68670;48.720;9.118;2024-01-15T03:42:53;7.32;;;3.60;;
79241;SDS011;68670;48.720;9.118;2024-01-15T03:45:20;13.40;;;3.38;;
79241;SDS011;68670;48.720;9.118;2024-01-15T03:47:46;9.15;;;3.85;;
79241;SDS011;68670;48.720;9.118;2024-01-15T03:50:13;14.85;;;3.53;;
79241;SDS011;68670;48.720;9.118;2024-01-15T03:52:41;10.35;;;3.42;;
79241;SDS011;68670;48.720;9.118;2024-01-15T03:55:06;7.85;;;3.17;;
79241;SDS011;68670;48.720;9.118;2024-01-15T03:57:34;6.80;;;3.53;;
79241;SDS011;68670;48.720;9.118;2024-01-15T04:00:02;8.82;;;3.60;;
79241;SDS011;68670;48.720;9.118;2024-01-15T04:02:30;9.20;;;3.17;;
79241;SDS011;68670;48.720;9.118;2024-01-15T04:04:55;10.97;;;3.30;;
79241;SDS011;68670;48.720;9.118;2024-01-15T04:07:20;7.03;;;2.47;;
79241;SDS011;68670;48.720;9.118;2024-01-15T04:09:48;10.05;;;4.07;;
79241;SDS011;68670;48.720;9.118;2024-01-15T04:12:13;8.03;;;3.00;;
79241;SDS011;68670;48.720;9.118;2024-01-15T04:14:41;10.00;;;3.33;;
79241;SDS011;68670;48.720;9.118;2024-01-15T04:17:13;11.23;;;3.15;;
79241;SDS011;68670;48.720;9.118;2024-01-15T04:19:43;10.25;;;2.92;;
79241;SDS011;68670;48.720;9.118;2024-01-15T04:22:11;15.35;;;4.25;;
79241;SDS011;68670;48.720;9.118;2024-01-15T04:24:41;10.95;;;3.83;;
79241;SDS011;68670;48.720;9.118;2024-01-15T04:27:08;6.78;;;2.70;;
79241;SDS011;68670;48.720;9.118;2024-01-15T04:29:34;12.67;;;3.60;;
79241;SDS011;68670;48.720;9.118;2024-01-15T04:32:01;8.50;;;2.72;;
79241;SDS011;68670;48.720;9.118;2024-01-15T04:34:30;7.65;;;3.03;;
79241;SDS011;68670;48.720;9.118;2024-01-15T04:36:57;5.80;;;2.00;;
79241;SDS011;68670;48.720;9.118;2024-01-15T04:39:23;14.30;;;3.97;;
79241;SDS011;68670;48.720;9.118;2024-01-15T04:41:48;11.60;;;3.97;;
79241;SDS011;68670;48.720;9.118;2024-01-15T04:44:14;11.73;;;3.80;;
79241;SDS011;68670;48.720;9.118;2024-01-15T04:46:41;9.40;;;2.80;;
79241;SDS011;68670;48.720;9.118;2024-01-15T04:49:08;7.35;;;2.67;;
79241;SDS011;68670;48.720;9.118;2024-01-15T04:51:34;12.18;;;3.75;;
79241;SDS011;68670;48.720;9.118;2024-01-15T04:53:59;12.03;;;3.93;;
79241;SDS011;68670;48.720;9.118;2024-01-15T04:56:24;9.97;;;3.17;;
79241;SDS011;68670;48.720;9.118;2024-01-15T04:58:52;15.27;;;3.78;;
79241;SDS011;68670;48.720;9.118;2024-01-15T05:01:22;9.90;;;3.72;;
79241;SDS011;68670;48.720;9.118;2024-01-15T05:03:50;10.27;;;3.10;;
79241;SDS011;68670;48.720;9.118;2024-01-15T05:06:15;8.37;;;3.27;;
79241;SDS011;68670;48.720;9.118;2024-01-15T05:08:40;10.77;;;4.03;;
79241;SDS011;68670;48.720;9.118;2024-01-15T05:11:08;9.48;;;3.72;;
79241;SDS011;68670;48.720;9.118;2024-01-15T05:13:34;12.07;;;3.27;;
79241;SDS011;68670;48.720;9.118;2024-01-15T05:15:59;11.40;;;2.90;;
79241;SDS011;68670;48.720;9.118;2024-01-15T05:18:26;11.60;;;3.95;;
79241;SDS011;68670;48.720;9.118;2024-01-15T05:20:54;14.15;;;3.88;;
79241;SDS011;68670;48.720;9.118;2024-01-15T05:23:24;9.80;;;3.50;;
79241;SDS011;68670;48.720;9.118;2024-01-15T05:25:52;11.85;;;3.60;;
79241;SDS011;68670;48.720;9.118;2024-01-15T05:28:17;12.70;;;3.25;;
79241;SDS011;68670;48.720;9.118;2024-01-15T05:30:43;9.93;;;3.67;;
79241;SDS011;68670;48.720;9.118;2024-01-15T05:33:11;11.52;;;4.25;;
79241;SDS011;68670;48.720;9.118;2024-01-15T05:35:38;8.00;;;3.50;;
79241;SDS011;68670;48.720;9.118;2024-01-15T05:38:04;9.83;;;3.37;;
79241;SDS011;68670;48.720;9.118;2024-01-15T05:40:29;11.97;;;2.63;;
79241;SDS011;68670;48.720;9.118;2024-01-15T05:42:54;11.23;;;4.07;;
79241;SDS011;68670;48.720;9.118;2024-01-15T05:45:22;13.40;;;3.90;;
79241;SDS011;68670;48.720;9.118;2024-01-15T05:47:47;9.15;;;3.20;;
79241;SDS011;68670;48.720;9.118;2024-01-15T05:50:13;12.85;;;3.80;;
79241;SDS011;68670;48.720;9.118;2024-01-15T05:52:38;13.03;;;4.07;;
79241;SDS011;68670;48.720;9.118;2024-01-15T05:55:04;10.70;;;2.50;;
79241;SDS011;68670;48.720;9.118;2024-01-15T05:57:29;15.98;;;4.00;;
79241;SDS011;68670;48.720;9.118;2024-01-15T05:59:55;10.45;;;3.42;;
79241;SDS011;68670;48.720;9.118;2024-01-15T06:02:23;9.88;;;2.83;;
79241;SDS011;68670;48.720;9.118;2024-01-15T06:04:50;6.60;;;2.95;;
79241;SDS011;68670;48.720;9.118;2024-01-15T06:07:16;8.10;;;3.20;;
79241;SDS011;68670;48.720;9.118;2024-01-15T06:09:41;8.53;;;3.27;;
79241;SDS011;68670;48.720;9.118;2024-01-15T06:12:09;7.63;;;2.83;;
79241;SDS011;68670;48.720;9.118;2024-01-15T06:14:34;9.53;;;3.07;;
79241;SDS011;68670;48.720;9.118;2024-01-15T06:17:02;9.23;;;4.47;;
79241;SDS011;68670;48.720;9.118;2024-01-15T06:19:29;7.93;;;3.28;;
79241;SDS011;68670;48.720;9.118;2024-01-15T06:21:57;9.20;;;3.30;;
79241;SDS011;68670;48.720;9.118;2024-01-15T06:24:22;8.95;;;3.17;;
79241;SDS011;68670;48.720;9.118;2024-01-15T06:26:47;9.20;;;3.75;;
79241;SDS011;68670;48.720;9.118;2024-01-15T06:29:13;9.50;;;3.43;;
79241;SDS011;68670;48.720;9.118;2024-01-15T06:31:38;9.20;;;2.53;;
79241;SDS011;68670;48.720;9.118;2024-01-15T06:34:06;6.85;;;2.33;;
79241;SDS011;68670;48.720;9.118;2024-01-15T06:36:31;11.07;;;3.53;;
79241;SDS011;68670;48.720;9.118;2024-01-15T06:38:58;11.05;;;3.78;;
79241;SDS011;68670;48.720;9.118;2024-01-15T06:41:26;8.40;;;3.28;;
79241;SDS011;68670;48.720;9.118;2024-01-15T06:43:53;9.90;;;3.83;;
79241;SDS011;68670;48.720;9.118;2024-01-15T06:46:22;7.43;;;3.10;;
79241;SDS011;68670;48.720;9.118;2024-01-15T06:48:49;11.70;;;3.38;;
79241;SDS011;68670;48.720;9.118;2024-01-15T06:51:15;9.43;;;3.40;;
79241;SDS011;68670;48.720;9.118;2024-01-15T06:53:43;5.47;;;2.38;;
79241;SDS011;68670;48.720;9.118;2024-01-15T06:56:09;7.83;;;3.37;;
79241;SDS011;68670;48.720;9.118;2024-01-15T06:58:37;7.70;;;3.63;;
79241;SDS011;68670;48.720;9.118;2024-01-15T07:01:02;9.10;;;3.75;;
79241;SDS011;68670;48.720;9.118;2024-01-15T07:03:28;9.48;;;2.88;;
79241;SDS011;68670;48.720;9.118;2024-01-15T07:05:53;9.20;;;3.27;;
79241;SDS011;68670;48.720;9.118;2024-01-15T07:08:18;10.75;;;3.97;;
79241;SDS011;68670;48.720;9.118;2024-01-15T07:10:46;7.47;;;3.63;;
79241;SDS011;68670;48.720;9.118;2024-01-15T07:13:14;11.70;;;3.50;;
79241;SDS011;68670;48.720;9.118;2024-01-15T07:15:39;6.60;;;2.97;;
79241;SDS011;68670;48.720;9.118;2024-01-15T07:18:04;11.10;;;3.53;;
79241;SDS011;68670;48.720;9.118;2024-01-15T07:20:30;8.88;;;3.15;;
79241;SDS011;68670;48.720;9.118;2024-01-15T07:22:55;11.07;;;3.33;;
79241;SDS011;68670;48.720;9.118;2024-01-15T07:25:21;7.15;;;2.75;;
79241;SDS011;68670;48.720;9.118;2024-01-15T07:27:47;9.07;;;3.63;;
79241;SDS011;68670;48.720;9.118;2024-01-15T07:30:12;9.13;;;3.20;;
79241;SDS011;68670;48.720;9.118;2024-01-15T07:32:38;6.10;;;2.83;;
79241;SDS011;68670;48.720;9.118;2024-01-15T07:35:04;13.82;;;3.85;;
79241;SDS011;68670;48.720;9.118;2024-01-15T07:37:30;10.65;;;3.70;;
79241;SDS011;68670;48.720;9.118;2024-01-15T07:39:55;15.13;;;3.83;;
79241;SDS011;68670;48.720;9.118;2024-01-15T07:42:23;10.32;;;2.97;;
79241;SDS011;68670;48.720;9.118;2024-01-15T07:44:48;12.93;;;4.03;;
79241;SDS011;68670;48.720;9.118;2024-01-15T07:47:13;7.73;;;3.23;;
79241;SDS011;68670;48.720;9.118;2024-01-15T07:49:41;10.10;;;3.60;;
79241;SDS011;68670;48.720;9.118;2024-01-15T07:52:06;9.88;;;3.20;;
79241;SDS011;68670;48.720;9.118;2024-01-15T07:54:36;9.38;;;3.30;;
79241;SDS011;68670;48.720;9.118;2024-01-15T07:57:06;10.55;;;4.05;;
79241;SDS011;68670;48.720;9.118;2024-01-15T07:59:34;8.17;;;3.10;;
79241;SDS011;68670;48.720;9.118;2024-01-15T08:02:00;9.00;;;2.58;;
79241;SDS011;68670;48.720;9.118;2024-01-15T08:04:25;5.75;;;2.60;;
79241;SDS011;68670;48.720;9.118;2024-01-15T08:06:51;9.53;;;4.10;;
79241;SDS011;68670;48.720;9.118;2024-01-15T08:09:16;8.85;;;3.10;;
79241;SDS011;68670;48.720;9.118;2024-01-15T08:11:42;8.00;;;2.65;;
79241;SDS011;68670;48.720;9.118;2024-01-15T08:14:08;9.10;;;3.28;;
79241;SDS011;68670;48.720;9.118;2024-01-15T08:16:38;8.82;;;3.17;;
79241;SDS011;68670;48.720;9.118;2024-01-15T08:19:04;11.32;;;3.33;;
79241;SDS011;68670;48.720;9.118;2024-01-15T08:21:32;7.03;;;3.20;;
79241;SDS011;68670;48.720;9.118;2024-01-15T08:24:01;7.90;;;2.63;;
79241;SDS011;68670;48.720;9.118;2024-01-15T08:26:29;11.50;;;3.67;;
79241;SDS011;68670;48.720;9.118;2024-01-15T08:28:54;8.65;;;3.03;;
79241;SDS011;68670;48.720;9.118;2024-01-15T08:31:22;6.43;;;3.20;;
79241;SDS011;68670;48.720;9.118;2024-01-15T08:33:48;11.15;;;3.33;;
79241;SDS011;68670;48.720;9.118;2024-01-15T08:36:13;17.38;;;2.90;;
79241;SDS011;68670;48.720;9.118;2024-01-15T08:38:41;9.27;;;2.67;;
79241;SDS011;68670;48.720;9.118;2024-01-15T08:41:06;6.17;;;2.87;;
79241;SDS011;68670;48.720;9.118;2024-01-15T08:43:34;7.10;;;2.90;;
79241;SDS011;68670;48.720;9.118;2024-01-15T08:46:00;8.80;;;2.47;;
79241;SDS011;68670;48.720;9.118;2024-01-15T08:48:25;11.23;;;3.75;;
79241;SDS011;68670;48.720;9.118;2024-01-15T08:50:52;9.80;;;3.33;;
79241;SDS011;68670;48.720;9.118;2024-01-15T08:53:18;6.07;;;2.65;;
79241;SDS011;68670;48.720;9.118;2024-01-15T08:55:46;9.80;;;2.67;;
79241;SDS011;68670;48.720;9.118;2024-01-15T08:58:12;7.28;;;2.28;;
79241;SDS011;68670;48.720;9.118;2024-01-15T09:03:10;5.80;;;2.37;;
79241;SDS011;68670;48.720;9.118;2024-01-15T09:05:35;8.45;;;1.83;;
79241;SDS011;68670;48.720;9.118;2024-01-15T09:08:03;6.97;;;2.47;;
79241;SDS011;68670;48.720;9.118;2024-01-15T09:10:29;5.88;;;2.30;;
79241;SDS011;68670;48.720;9.118;2024-01-15T09:12:56;6.75;;;2.47;;
79241;SDS011;68670;48.720;9.118;2024-01-15T09:15:22;8.48;;;3.10;;
79241;SDS011;68670;48.720;9.118;2024-01-15T09:17:49;6.15;;;2.38;;
79241;SDS011;68670;48.720;9.118;2024-01-15T09:20:17;6.35;;;2.47;;
79241;SDS011;68670;48.720;9.118;2024-01-15T09:22:43;5.90;;;2.00;;
79241;SDS011;68670;48.720;9.118;2024-01-15T09:25:09;6.53;;;1.85;;
79241;SDS011;68670;48.720;9.118;2024-01-15T09:27:35;7.35;;;2.75;;
79241;SDS011;68670;48.720;9.118;2024-01-15T09:30:03;8.57;;;2.15;;
79241;SDS011;68670;48.720;9.118;2024-01-15T09:32:29;5.68;;;2.03;;
79241;SDS011;68670;48.720;9.118;2024-01-15T09:34:57;5.53;;;2.10;;
79241;SDS011;68670;48.720;9.118;2024-01-15T09:37:25;3.53;;;1.77;;
79241;SDS011;68670;48.720;9.118;2024-01-15T09:39:51;5.13;;;1.85;;
79241;SDS011;68670;48.720;9.118;2024-01-15T09:42:20;6.57;;;2.10;;
79241;SDS011;68670;48.720;9.118;2024-01-15T09:44:49;6.72;;;1.85;;
79241;SDS011;68670;48.720;9.118;2024-01-15T09:47:15;5.95;;;1.90;;
79241;SDS011;68670;48.720;9.118;2024-01-15T09:49:44;4.03;;;1.48;;
79241;SDS011;68670;48.720;9.118;2024-01-15T09:52:14;6.25;;;2.20;;
79241;SDS011;68670;48.720;9.118;2024-01-15T09:54:46;6.25;;;2.58;;
79241;SDS011;68670;48.720;9.118;2024-01-15T09:57:12;6.90;;;3.22;;
79241;SDS011;68670;48.720;9.118;2024-01-15T09:59:37;5.22;;;2.20;;
79241;SDS011;68670;48.720;9.118;2024-01-15T10:02:06;7.80;;;1.80;;
79241;SDS011;68670;48.720;9.118;2024-01-15T10:04:32;4.30;;;1.83;;
79241;SDS011;68670;48.720;9.118;2024-01-15T10:07:00;11.93;;;2.50;;
79241;SDS011;68670;48.720;9.118;2024-01-15T10:09:28;6.60;;;2.17;;
79241;SDS011;68670;48.720;9.118;2024-01-15T10:11:53;5.70;;;2.07;;
79241;SDS011;68670;48.720;9.118;2024-01-15T10:14:19;4.22;;;1.90;;
79241;SDS011;68670;48.720;9.118;2024-01-15T10:16:44;5.43;;;2.15;;
79241;SDS011;68670;48.720;9.118;2024-01-15T10:19:12;4.63;;;2.00;;
79241;SDS011;68670;48.720;9.118;2024-01-15T10:21:39;4.70;;;1.75;;
79241;SDS011;68670;48.720;9.118;2024-01-15T10:24:11;4.95;;;2.63;;
79241;SDS011;68670;48.720;9.118;2024-01-15T10:26:37;6.03;;;2.87;;
79241;SDS011;68670;48.720;9.118;2024-01-15T10:29:02;12.90;;;3.25;;
79241;SDS011;68670;48.720;9.118;2024-01-15T10:31:28;8.63;;;2.63;;
79241;SDS011;68670;48.720;9.118;2024-01-15T10:33:53;9.30;;;2.50;;
79241;SDS011;68670;48.720;9.118;2024-01-15T10:36:21;7.18;;;2.22;;
79241;SDS011;68670;48.720;9.118;2024-01-15T10:38:47;8.02;;;2.60;;
79241;SDS011;68670;48.720;9.118;2024-01-15T10:41:12;6.90;;;2.20;;
79241;SDS011;68670;48.720;9.118;2024-01-15T10:43:41;6.25;;;2.65;;
79241;SDS011;68670;48.720;9.118;2024-01-15T10:46:06;6.25;;;2.47;;
79241;SDS011;68670;48.720;9.118;2024-01-15T10:48:32;7.65;;;2.28;;
79241;SDS011;68670;48.720;9.118;2024-01-15T10:51:03;4.15;;;1.70;;
79241;SDS011;68670;48.720;9.118;2024-01-15T10:53:35;5.38;;;2.50;;
79241;SDS011;68670;48.720;9.118;2024-01-15T10:56:05;5.63;;;2.47;;
79241;SDS011;68670;48.720;9.118;2024-01-15T10:58:34;9.73;;;2.35;;
79241;SDS011;68670;48.720;9.118;2024-01-15T11:01:07;8.27;;;2.88;;
79241;SDS011;68670;48.720;9.118;2024-01-15T11:03:34;6.97;;;2.72;;
79241;SDS011;68670;48.720;9.118;2024-01-15T11:06:01;8.65;;;3.17;;
79241;SDS011;68670;48.720;9.118;2024-01-15T11:08:30;4.95;;;1.90;;
79241;SDS011;68670;48.720;9.118;2024-01-15T11:11:01;5.70;;;2.60;;
79241;SDS011;68670;48.720;9.118;2024-01-15T11:16:07;5.47;;;2.35;;
79241;SDS011;68670;48.720;9.118;2024-01-15T11:18:40;4.95;;;2.20;;
79241;SDS011;68670;48.720;9.118;2024-01-15T11:23:50;7.90;;;2.85;;
79241;SDS011;68670;48.720;9.118;2024-01-15T11:26:31;6.18;;;2.50;;
79241;SDS011;68670;48.720;9.118;2024-01-15T11:29:01;7.93;;;2.90;;
79241;SDS011;68670;48.720;9.118;2024-01-15T11:34:12;6.17;;;2.70;;
79241;SDS011;68670;48.720;9.118;2024-01-15T11:37:20;6.32;;;2.47;;
79241;SDS011;68670;48.720;9.118;2024-01-15T11:41:55;6.38;;;2.10;;
79241;SDS011;68670;48.720;9.118;2024-01-15T11:44:22;9.43;;;3.13;;
79241;SDS011;68670;48.720;9.118;2024-01-15T11:46:57;8.95;;;3.40;;
79241;SDS011;68670;48.720;9.118;2024-01-15T11:52:33;5.03;;;1.92;;
79241;SDS011;68670;48.720;9.118;2024-01-15T11:57:33;6.85;;;2.28;;
79241;SDS011;68670;48.720;9.118;2024-01-15T12:00:05;7.22;;;2.60;;
79241;SDS011;68670;48.720;9.118;2024-01-15T12:02:33;6.32;;;2.70;;
79241;SDS011;68670;48.720;9.118;2024-01-15T12:05:00;5.30;;;2.60;;
79241;SDS011;68670;48.720;9.118;2024-01-15T12:07:26;7.95;;;3.35;;
79241;SDS011;68670;48.720;9.118;2024-01-15T12:09:51;8.47;;;2.23;;
79241;SDS011;68670;48.720;9.118;2024-01-15T12:12:24;6.50;;;2.30;;
79241;SDS011;68670;48.720;9.118;2024-01-15T12:15:00;9.68;;;2.85;;
79241;SDS011;68670;48.720;9.118;2024-01-15T12:17:25;6.70;;;3.03;;
79241;SDS011;68670;48.720;9.118;2024-01-15T12:19:51;9.80;;;3.22;;
79241;SDS011;68670;48.720;9.118;2024-01-15T12:22:21;7.15;;;3.08;;
79241;SDS011;68670;48.720;9.118;2024-01-15T12:24:46;8.13;;;2.65;;
79241;SDS011;68670;48.720;9.118;2024-01-15T12:27:12;9.15;;;3.92;;
79241;SDS011;68670;48.720;9.118;2024-01-15T12:29:37;7.07;;;2.45;;
79241;SDS011;68670;48.720;9.118;2024-01-15T12:32:04;9.70;;;2.60;;
79241;SDS011;68670;48.720;9.118;2024-01-15T12:34:30;5.88;;;2.97;;
79241;SDS011;68670;48.720;9.118;2024-01-15T12:37:00;7.78;;;2.88;;
79241;SDS011;68670;48.720;9.118;2024-01-15T12:39:28;4.60;;;2.40;;
79241;SDS011;68670;48.720;9.118;2024-01-15T12:41:54;5.28;;;2.40;;
79241;SDS011;68670;48.720;9.118;2024-01-15T12:44:19;11.48;;;2.55;;
79241;SDS011;68670;48.720;9.118;2024-01-15T12:46:45;8.05;;;3.10;;
79241;SDS011;68670;48.720;9.118;2024-01-15T12:49:10;6.80;;;2.60;;
79241;SDS011;68670;48.720;9.118;2024-01-15T12:51:37;6.30;;;2.35;;
79241;SDS011;68670;48.720;9.118;2024-01-15T12:54:06;7.63;;;2.92;;
79241;SDS011;68670;48.720;9.118;2024-01-15T12:58:59;5.27;;;2.60;;
79241;SDS011;68670;48.720;9.118;2024-01-15T13:01:26;9.73;;;2.93;;
79241;SDS011;68670;48.720;9.118;2024-01-15T13:03:51;8.85;;;2.65;;
79241;SDS011;68670;48.720;9.118;2024-01-15T13:06:17;5.45;;;2.47;;
79241;SDS011;68670;48.720;9.118;2024-01-15T13:08:44;4.13;;;2.10;;
79241;SDS011;68670;48.720;9.118;2024-01-15T13:11:12;7.03;;;2.28;;
79241;SDS011;68670;48.720;9.118;2024-01-15T13:13:37;9.93;;;2.38;;
79241;SDS011;68670;48.720;9.118;2024-01-15T13:16:05;12.57;;;3.57;;
79241;SDS011;68670;48.720;9.118;2024-01-15T13:18:30;8.60;;;2.38;;
79241;SDS011;68670;48.720;9.118;2024-01-15T13:20:56;4.20;;;2.30;;
79241;SDS011;68670;48.720;9.118;2024-01-15T13:23:21;5.47;;;2.25;;
79241;SDS011;68670;48.720;9.118;2024-01-15T13:25:47;6.23;;;1.83;;
79241;SDS011;68670;48.720;9.118;2024-01-15T13:28:12;5.82;;;2.75;;
79241;SDS011;68670;48.720;9.118;2024-01-15T13:30:38;8.40;;;2.67;;
79241;SDS011;68670;48.720;9.118;2024-01-15T13:33:03;4.40;;;2.10;;
79241;SDS011;68670;48.720;9.118;2024-01-15T13:35:30;5.55;;;2.13;;
79241;SDS011;68670;48.720;9.118;2024-01-15T13:37:55;9.43;;;3.25;;
79241;SDS011;68670;48.720;9.118;2024-01-15T13:40:21;6.43;;;2.63;;
79241;SDS011;68670;48.720;9.118;2024-01-15T13:42:48;15.98;;;2.70;;
79241;SDS011;68670;48.720;9.118;2024-01-15T13:45:17;5.75;;;2.80;;
79241;SDS011;68670;48.720;9.118;2024-01-15T13:47:43;6.78;;;2.83;;
79241;SDS011;68670;48.720;9.118;2024-01-15T13:50:09;5.18;;;2.10;;
79241;SDS011;68670;48.720;9.118;2024-01-15T13:52:34;5.35;;;2.17;;
79241;SDS011;68670;48.720;9.118;2024-01-15T13:55:00;7.25;;;2.80;;
79241;SDS011;68670;48.720;9.118;2024-01-15T13:57:27;6.45;;;3.17;;
79241;SDS011;68670;48.720;9.118;2024-01-15T13:59:53;11.80;;;2.60;;
79241;SDS011;68670;48.720;9.118;2024-01-15T14:02:18;6.73;;;2.33;;
79241;SDS011;68670;48.720;9.118;2024-01-15T14:04:45;5.38;;;1.90;;
79241;SDS011;68670;48.720;9.118;2024-01-15T14:07:12;6.30;;;2.47;;
79241;SDS011;68670;48.720;9.118;2024-01-15T14:12:05;6.57;;;2.23;;
79241;SDS011;68670;48.720;9.118;2024-01-15T14:14:31;7.28;;;2.58;;
79241;SDS011;68670;48.720;9.118;2024-01-15T14:16:59;3.70;;;1.80;;
79241;SDS011;68670;48.720;9.118;2024-01-15T14:19:25;7.20;;;2.17;;
79241;SDS011;68670;48.720;9.118;2024-01-15T14:21:50;3.60;;;1.70;;
79241;SDS011;68670;48.720;9.118;2024-01-15T14:24:15;7.90;;;1.97;;
79241;SDS011;68670;48.720;9.118;2024-01-15T14:26:43;4.50;;;1.70;;
79241;SDS011;68670;48.720;9.118;2024-01-15T14:29:11;5.35;;;1.92;;
79241;SDS011;68670;48.720;9.118;2024-01-15T14:31:36;4.23;;;1.80;;
79241;SDS011;68670;48.720;9.118;2024-01-15T14:34:02;4.40;;;1.83;;
79241;SDS011;68670;48.720;9.118;2024-01-15T14:36:28;3.17;;;1.52;;
79241;SDS011;68670;48.720;9.118;2024-01-15T14:38:53;5.57;;;1.67;;
79241;SDS011;68670;48.720;9.118;2024-01-15T14:41:18;3.20;;;1.15;;
79241;SDS011;68670;48.720;9.118;2024-01-15T14:43:44;4.33;;;1.63;;
79241;SDS011;68670;48.720;9.118;2024-01-15T14:46:09;4.90;;;1.58;;
79241;SDS011;68670;48.720;9.118;2024-01-15T14:48:36;2.90;;;1.40;;
79241;SDS011;68670;48.720;9.118;2024-01-15T14:51:01;2.50;;;1.50;;
79241;SDS011;68670;48.720;9.118;2024-01-15T14:53:30;4.18;;;1.60;;
79241;SDS011;68670;48.720;9.118;2024-01-15T14:55:56;8.30;;;2.58;;
79241;SDS011;68670;48.720;9.118;2024-01-15T14:58:21;3.00;;;1.60;;
79241;SDS011;68670;48.720;9.118;2024-01-15T15:00:46;3.13;;;1.23;;
79241;SDS011;68670;48.720;9.118;2024-01-15T15:03:12;4.70;;;1.65;;
79241;SDS011;68670;48.720;9.118;2024-01-15T15:05:40;4.40;;;1.63;;